Westover, West Virginia
Current Conditions -  °F | °C
As of 5:53 AM on Friday 21 Nov 2014 (Local Time) from KMGW Reporting Station
Clear Clear  
Wind Chill: 17°   Ceiling: Unl
Heat Index: 23°   Visibility: 10mi
Dew Point: 11°   Wind: 5mph
Humidity: 60%   Direction: 250°WSW
Pressure: 30.32"   Gusts: NA
Location:  39.6458°N, 79.9219°W
Report Text: KMGW 211053Z AUTO 25004KT 10SM CLR M05/M12 A3032 RMK AO2 SLP282 T10501117 TSNO
Loading
Personal Weather Stations






























Interactive Weather Map New forecast layout! Learn more

10-Day Weather Forecast

Advertisements
Track Severe Weather on mobile